Time;durP1;ratioP1;P1;durP2;ratioP2;P2;SDS_P1;SDS_P2;PMS_P1;PMS_P2;Temp;Humidity;BMP_temperature;BMP_pressure;BME280_temperature;BME280_humidity;BME280_pressure;Samples;Min_cycle;Max_cycle;Signal;HPM_P1;HPM_P2
2021/12/22 00:01:11;;;;;;;;;;;1.40;55.10;;;;;;5115508;28;19907;-64
2021/12/22 00:03:39;;;;;;;;;;;1.40;55.10;;;;;;5115344;28;19918;-64
2021/12/22 00:06:04;;;;;;;;;;;1.40;55.20;;;;;;5115358;28;19999;-63
2021/12/22 00:08:30;;;;;;;;;;;1.40;55.20;;;;;;5102078;28;20015;-64
2021/12/22 00:10:56;;;;;;;;;;;1.30;55.20;;;;;;5093597;28;19962;-63
2021/12/22 00:13:21;;;;;;;;;;;1.30;55.20;;;;;;5094867;28;19904;-64
2021/12/22 00:15:47;;;;;;;;;;;1.30;55.30;;;;;;5113260;28;19919;-64
2021/12/22 00:18:12;;;;;;;;;;;1.30;55.30;;;;;;5114794;28;20349;-64
2021/12/22 00:20:38;;;;;;;;;;;1.30;55.30;;;;;;5111966;28;19965;-63
2021/12/22 00:23:04;;;;;;;;;;;1.30;55.30;;;;;;5102659;28;20003;-64
2021/12/22 00:25:29;;;;;;;;;;;1.30;55.30;;;;;;5094611;28;19959;-64
2021/12/22 00:27:57;;;;;;;;;;;1.20;55.30;;;;;;5094599;28;19951;-64
2021/12/22 00:30:26;;;;;;;;;;;1.20;55.30;;;;;;5094580;28;19914;-65
2021/12/22 00:32:55;;;;;;;;;;;1.20;55.30;;;;;;5095617;28;19913;-64
2021/12/22 00:35:23;;;;;;;;;;;1.20;55.30;;;;;;5094597;28;19908;-64
2021/12/22 00:37:49;;;;;;;;;;;1.20;55.30;;;;;;5094525;28;19908;-64
2021/12/22 00:40:15;;;;;;;;;;;1.20;55.40;;;;;;5094380;28;19991;-64
2021/12/22 00:42:41;;;;;;;;;;;1.10;55.40;;;;;;5094379;28;20049;-64
2021/12/22 00:45:07;;;;;;;;;;;1.10;55.40;;;;;;5095327;28;19980;-64
2021/12/22 00:47:32;;;;;;;;;;;1.10;55.50;;;;;;5094193;28;19912;-66
2021/12/22 00:49:59;;;;;;;;;;;1.10;55.50;;;;;;5094173;28;19908;-64
2021/12/22 00:52:25;;;;;;;;;;;1.10;55.50;;;;;;5094102;28;20324;-64
2021/12/22 00:54:51;;;;;;;;;;;1.00;55.60;;;;;;5094171;28;19991;-64
2021/12/22 00:57:17;;;;;;;;;;;1.00;55.60;;;;;;5096942;28;19911;-64
2021/12/22 00:59:44;;;;;;;;;;;1.00;55.70;;;;;;5114437;28;20296;-64
2021/12/22 01:02:10;;;;;;;;;;;1.00;55.70;;;;;;5114280;28;19947;-65
2021/12/22 01:04:36;;;;;;;;;;;1.00;55.80;;;;;;5114257;28;20353;-64
2021/12/22 01:07:03;;;;;;;;;;;1.00;55.90;;;;;;5114317;28;19908;-64
2021/12/22 01:09:29;;;;;;;;;;;1.00;55.90;;;;;;5112474;28;19999;-65
2021/12/22 01:11:54;;;;;;;;;;;1.00;55.90;;;;;;5113843;28;20432;-64
2021/12/22 01:14:21;;;;;;;;;;;1.00;55.90;;;;;;5113635;28;19954;-64
2021/12/22 01:16:49;;;;;;;;;;;1.00;55.90;;;;;;5114063;28;19947;-64
2021/12/22 01:19:20;;;;;;;;;;;0.90;55.80;;;;;;5115042;28;19908;-65
2021/12/22 01:21:52;;;;;;;;;;;0.90;55.90;;;;;;5115006;28;19908;-65
2021/12/22 01:24:33;;;;;;;;;;;1.00;56.00;;;;;;5113188;28;19912;-64
2021/12/22 01:27:08;;;;;;;;;;;0.90;55.90;;;;;;5114578;28;19947;-64
2021/12/22 01:29:35;;;;;;;;;;;0.90;55.90;;;;;;5113529;28;19919;-64
2021/12/22 01:32:01;;;;;;;;;;;0.90;56.00;;;;;;5114739;28;19931;-64
2021/12/22 01:34:27;;;;;;;;;;;0.90;56.60;;;;;;5114682;28;19908;-64
2021/12/22 01:36:53;;;;;;;;;;;0.90;56.00;;;;;;5096212;28;19948;-64
2021/12/22 01:39:19;;;;;;;;;;;0.90;56.00;;;;;;5094157;28;20329;-64
2021/12/22 01:41:45;;;;;;;;;;;0.80;55.90;;;;;;5094185;28;19915;-64
2021/12/22 01:44:13;;;;;;;;;;;0.80;56.00;;;;;;5094109;28;19908;-64
2021/12/22 01:49:10;;;;;;;;;;;0.80;56.00;;;;;;5108803;28;19916;-64
2021/12/22 01:51:40;;;;;;;;;;;0.80;56.10;;;;;;5114679;28;19985;-64
2021/12/22 01:54:08;;;;;;;;;;;0.80;56.10;;;;;;5114365;28;20285;-64
2021/12/22 01:56:35;;;;;;;;;;;0.70;56.10;;;;;;5114307;28;19908;-64
2021/12/22 01:59:02;;;;;;;;;;;0.70;56.10;;;;;;5114239;28;19911;-64
2021/12/22 02:01:29;;;;;;;;;;;0.70;56.10;;;;;;5112251;28;19955;-64
2021/12/22 02:03:56;;;;;;;;;;;0.70;56.10;;;;;;5114022;28;19908;-64
2021/12/22 02:06:22;;;;;;;;;;;0.70;56.10;;;;;;5113955;28;19947;-64
2021/12/22 02:08:47;;;;;;;;;;;0.70;56.20;;;;;;5113840;28;19912;-64
2021/12/22 02:11:14;;;;;;;;;;;0.70;56.20;;;;;;5113898;28;19964;-65
2021/12/22 02:13:44;;;;;;;;;;;0.70;56.20;;;;;;5098608;28;19923;-64
2021/12/22 02:16:13;;;;;;;;;;;0.60;56.30;;;;;;5093166;28;19920;-64
2021/12/22 02:18:43;;;;;;;;;;;0.60;56.30;;;;;;5093392;28;20383;-64
2021/12/22 02:21:08;;;;;;;;;;;0.60;56.30;;;;;;5093389;28;19935;-64
2021/12/22 02:23:34;;;;;;;;;;;0.60;56.30;;;;;;5093360;28;19909;-64
2021/12/22 02:26:08;;;;;;;;;;;0.60;56.30;;;;;;5109443;28;19957;-64
2021/12/22 02:28:36;;;;;;;;;;;0.60;56.40;;;;;;5111816;28;19920;-64
2021/12/22 02:31:02;;;;;;;;;;;0.50;56.40;;;;;;5113592;28;20392;-64
2021/12/22 02:33:36;;;;;;;;;;;0.50;56.40;;;;;;5113678;28;19908;-64
2021/12/22 02:38:31;;;;;;;;;;;0.50;56.50;;;;;;5111881;28;19919;-64
2021/12/22 02:40:57;;;;;;;;;;;0.50;56.50;;;;;;5113109;28;19914;-64
2021/12/22 02:43:24;;;;;;;;;;;0.50;56.50;;;;;;5113527;28;19909;-64
2021/12/22 02:45:50;;;;;;;;;;;0.50;56.60;;;;;;5113569;28;20280;-64
2021/12/22 02:48:16;;;;;;;;;;;0.50;56.60;;;;;;5113368;28;19912;-65
2021/12/22 02:50:42;;;;;;;;;;;0.40;56.70;;;;;;5098872;28;20384;-64
2021/12/22 02:53:14;;;;;;;;;;;0.50;56.70;;;;;;5093111;28;19912;-64
2021/12/22 02:58:11;;;;;;;;;;;0.40;56.80;;;;;;5093083;28;20311;-65
2021/12/22 03:01:27;;;;;;;;;;;0.50;57.00;;;;;;5110844;28;19915;-64
2021/12/22 03:03:45;;;;;;;;;;;0.50;57.00;;;;;;5092835;28;20003;-64
2021/12/22 03:06:15;;;;;;;;;;;0.40;57.00;;;;;;5092964;28;20272;-64
2021/12/22 03:08:40;;;;;;;;;;;0.40;57.00;;;;;;5092842;28;19948;-64
2021/12/22 03:11:06;;;;;;;;;;;0.40;57.00;;;;;;5092891;28;19974;-64
2021/12/22 03:13:32;;;;;;;;;;;0.40;57.00;;;;;;5092725;28;19970;-64
2021/12/22 03:15:57;;;;;;;;;;;0.40;57.00;;;;;;5093724;28;19920;-64
2021/12/22 03:18:23;;;;;;;;;;;0.40;57.00;;;;;;5092915;28;19908;-64
2021/12/22 03:20:57;;;;;;;;;;;0.40;57.00;;;;;;5091583;28;19958;-64
2021/12/22 03:23:23;;;;;;;;;;;0.40;57.10;;;;;;5091580;28;20343;-64
2021/12/22 03:25:49;;;;;;;;;;;0.40;57.10;;;;;;5092849;28;19995;-64
2021/12/22 03:28:14;;;;;;;;;;;0.40;57.10;;;;;;5106324;28;19916;-64
2021/12/22 03:30:40;;;;;;;;;;;0.40;57.10;;;;;;5113110;28;19911;-64
2021/12/22 03:33:05;;;;;;;;;;;0.40;57.10;;;;;;5113072;28;19904;-64
2021/12/22 03:35:34;;;;;;;;;;;0.40;57.10;;;;;;5113040;28;19915;-64
2021/12/22 03:38:00;;;;;;;;;;;0.40;57.10;;;;;;5113015;28;19956;-64
2021/12/22 03:40:26;;;;;;;;;;;0.40;57.10;;;;;;5098189;28;19912;-64
2021/12/22 03:42:52;;;;;;;;;;;0.40;57.20;;;;;;5092443;28;19908;-64
2021/12/22 03:45:18;;;;;;;;;;;0.40;57.20;;;;;;5092610;28;20123;-64
2021/12/22 03:47:44;;;;;;;;;;;0.40;57.20;;;;;;5092492;28;19908;-64
2021/12/22 03:50:10;;;;;;;;;;;0.30;57.10;;;;;;5092794;28;20285;-64
2021/12/22 03:52:36;;;;;;;;;;;0.30;57.10;;;;;;5097369;28;19919;-64
2021/12/22 03:55:02;;;;;;;;;;;0.30;57.10;;;;;;5096228;28;19908;-64
2021/12/22 03:57:28;;;;;;;;;;;0.30;57.10;;;;;;5099410;28;20407;-64
2021/12/22 03:59:57;;;;;;;;;;;0.30;57.10;;;;;;5116446;28;19908;-65
2021/12/22 04:02:23;;;;;;;;;;;0.30;57.10;;;;;;5116419;27;20340;-64
2021/12/22 04:04:50;;;;;;;;;;;0.30;57.20;;;;;;5103812;28;19912;-64
2021/12/22 04:07:16;;;;;;;;;;;0.20;57.20;;;;;;5095953;28;19908;-64
2021/12/22 04:09:42;;;;;;;;;;;0.20;57.20;;;;;;5095849;28;20015;-64
2021/12/22 04:12:08;;;;;;;;;;;0.20;57.30;;;;;;5095750;28;20373;-65
2021/12/22 04:14:33;;;;;;;;;;;0.20;57.30;;;;;;5095863;28;19965;-64
2021/12/22 04:16:59;;;;;;;;;;;0.20;57.30;;;;;;5096659;28;19920;-65
2021/12/22 04:19:24;;;;;;;;;;;0.20;57.30;;;;;;5095714;28;20007;-64
2021/12/22 04:21:51;;;;;;;;;;;0.20;57.30;;;;;;5095684;28;20344;-64
2021/12/22 04:24:17;;;;;;;;;;;0.20;57.40;;;;;;5095638;28;19908;-64
2021/12/22 04:26:42;;;;;;;;;;;0.20;57.40;;;;;;5095843;28;20312;-65
2021/12/22 04:29:10;;;;;;;;;;;0.20;57.40;;;;;;5096638;28;19912;-65
2021/12/22 04:31:36;;;;;;;;;;;0.20;57.40;;;;;;5095788;28;19909;-63
2021/12/22 04:34:06;;;;;;;;;;;0.20;57.40;;;;;;5095454;28;19904;-64
2021/12/22 04:36:32;;;;;;;;;;;0.20;57.50;;;;;;5095299;28;19915;-64
2021/12/22 04:38:59;;;;;;;;;;;0.20;57.50;;;;;;5095422;28;20273;-64
2021/12/22 04:41:26;;;;;;;;;;;0.20;57.50;;;;;;5093981;28;19908;-64
2021/12/22 04:43:52;;;;;;;;;;;0.20;57.50;;;;;;5113639;28;19923;-64
2021/12/22 04:46:19;;;;;;;;;;;0.20;57.60;;;;;;5115579;28;20358;-63
2021/12/22 04:48:45;;;;;;;;;;;0.20;57.50;;;;;;5115477;28;19912;-63
2021/12/22 04:51:22;;;;;;;;;;;0.20;57.50;;;;;;5115433;28;19908;-64
2021/12/22 04:53:53;;;;;;;;;;;0.20;57.50;;;;;;5115492;28;20303;-64
2021/12/22 04:56:19;;;;;;;;;;;0.30;57.60;;;;;;5100939;28;19915;-64
2021/12/22 04:58:44;;;;;;;;;;;0.20;57.60;;;;;;5115140;28;19960;-64
2021/12/22 05:01:10;;;;;;;;;;;0.20;57.60;;;;;;5115223;28;19981;-64
2021/12/22 05:03:35;;;;;;;;;;;0.30;57.60;;;;;;5110041;28;19951;-64
2021/12/22 05:06:02;;;;;;;;;;;0.30;57.60;;;;;;5094677;28;20007;-64
2021/12/22 05:08:29;;;;;;;;;;;0.30;57.60;;;;;;5095688;28;19927;-64
2021/12/22 05:10:55;;;;;;;;;;;0.30;57.60;;;;;;5094383;28;19944;-64
2021/12/22 05:13:21;;;;;;;;;;;0.30;57.60;;;;;;5094486;28;19958;-64
2021/12/22 05:15:46;;;;;;;;;;;0.30;57.60;;;;;;5094286;28;19920;-64
2021/12/22 05:18:21;;;;;;;;;;;0.30;57.60;;;;;;5094412;28;19928;-64
2021/12/22 05:20:47;;;;;;;;;;;0.30;57.60;;;;;;5108311;28;19951;-64
2021/12/22 05:23:13;;;;;;;;;;;0.30;57.60;;;;;;5113432;28;19954;-64
2021/12/22 05:25:38;;;;;;;;;;;0.30;57.60;;;;;;5114635;28;20373;-64
2021/12/22 05:28:04;;;;;;;;;;;0.20;57.50;;;;;;5114527;28;19911;-64
2021/12/22 05:30:30;;;;;;;;;;;0.20;57.60;;;;;;5114529;28;20254;-65
2021/12/22 05:32:55;;;;;;;;;;;0.20;57.60;;;;;;5100971;28;19969;-65
2021/12/22 05:35:22;;;;;;;;;;;0.20;57.60;;;;;;5094525;28;19908;-64
2021/12/22 05:37:48;;;;;;;;;;;0.20;57.60;;;;;;5094242;28;19904;-64
2021/12/22 05:40:14;;;;;;;;;;;0.20;57.60;;;;;;5094195;28;20006;-64
2021/12/22 05:42:42;;;;;;;;;;;0.20;57.70;;;;;;5094075;28;19908;-65
2021/12/22 05:45:08;;;;;;;;;;;0.20;57.70;;;;;;5095039;28;20304;-65
2021/12/22 05:47:34;;;;;;;;;;;0.20;57.70;;;;;;5094008;28;20015;-65
2021/12/22 05:49:59;;;;;;;;;;;0.20;57.70;;;;;;5093853;28;19916;-65
2021/12/22 05:52:25;;;;;;;;;;;0.20;57.70;;;;;;5093948;28;19998;-65
2021/12/22 05:54:51;;;;;;;;;;;0.20;57.70;;;;;;5098661;28;19912;-65
2021/12/22 05:57:16;;;;;;;;;;;0.10;57.70;;;;;;5106741;28;19912;-65
2021/12/22 05:59:42;;;;;;;;;;;0.10;57.70;;;;;;5093640;28;19912;-64
2021/12/22 06:02:08;;;;;;;;;;;0.20;57.70;;;;;;5093635;28;19962;-65
2021/12/22 06:04:34;;;;;;;;;;;0.10;57.70;;;;;;5093733;28;19951;-65
2021/12/22 06:06:59;;;;;;;;;;;0.10;57.70;;;;;;5093460;28;20385;-65
2021/12/22 06:09:25;;;;;;;;;;;0.10;57.70;;;;;;5096357;28;19927;-65
2021/12/22 06:11:50;;;;;;;;;;;0.10;57.80;;;;;;5113823;28;19914;-65
2021/12/22 06:14:16;;;;;;;;;;;0.10;57.70;;;;;;5112924;28;19908;-64
2021/12/22 06:16:41;;;;;;;;;;;0.10;57.80;;;;;;5113481;28;19915;-65
2021/12/22 06:19:09;;;;;;;;;;;0.10;57.90;;;;;;5113718;28;20416;-65
2021/12/22 06:21:35;;;;;;;;;;;0.10;57.90;;;;;;5113610;28;19912;-64
2021/12/22 06:24:01;;;;;;;;;;;0.10;57.90;;;;;;5111884;28;20387;-65
2021/12/22 06:26:27;;;;;;;;;;;0.10;57.90;;;;;;5113591;28;19914;-66
2021/12/22 06:28:52;;;;;;;;;;;0.10;57.90;;;;;;5113591;28;19912;-64
2021/12/22 06:31:18;;;;;;;;;;;0.00;57.80;;;;;;5113554;27;20006;-64
2021/12/22 06:33:44;;;;;;;;;;;0.00;57.80;;;;;;5113474;28;19908;-64
2021/12/22 06:36:10;;;;;;;;;;;0.00;57.90;;;;;;5111749;28;20258;-64
2021/12/22 06:38:35;;;;;;;;;;;0.00;57.90;;;;;;5113604;28;20288;-64
2021/12/22 06:41:02;;;;;;;;;;;0.00;57.90;;;;;;5113428;28;19908;-64
2021/12/22 06:43:28;;;;;;;;;;;0.00;57.90;;;;;;5113462;28;19907;-65
2021/12/22 06:45:54;;;;;;;;;;;0.00;57.90;;;;;;5113410;28;19908;-64
2021/12/22 06:48:19;;;;;;;;;;;0.00;58.00;;;;;;5111446;28;19923;-65
2021/12/22 06:50:45;;;;;;;;;;;0.00;58.10;;;;;;5113339;28;19911;-64
2021/12/22 06:53:10;;;;;;;;;;;0.00;58.10;;;;;;5113381;28;20395;-64
2021/12/22 06:55:36;;;;;;;;;;;0.00;58.10;;;;;;5113300;28;19946;-64
2021/12/22 06:58:02;;;;;;;;;;;0.00;58.10;;;;;;5113394;28;19908;-65
2021/12/22 07:00:28;;;;;;;;;;;0.00;58.10;;;;;;5108093;28;19913;-65
2021/12/22 07:02:56;;;;;;;;;;;0.00;58.10;;;;;;5093035;28;19915;-64
2021/12/22 07:05:21;;;;;;;;;;;0.00;58.10;;;;;;5093065;28;19912;-64
2021/12/22 07:07:47;;;;;;;;;;;0.00;58.20;;;;;;5093017;28;19908;-65
2021/12/22 07:10:13;;;;;;;;;;;0.00;58.30;;;;;;5092964;28;20366;-64
2021/12/22 07:12:40;;;;;;;;;;;0.00;58.30;;;;;;5095074;28;19986;-65
2021/12/22 07:15:07;;;;;;;;;;;0.00;58.40;;;;;;5112270;28;19926;-64
2021/12/22 07:17:33;;;;;;;;;;;0.00;58.40;;;;;;5092727;28;19912;-65
2021/12/22 07:19:59;;;;;;;;;;;0.00;58.50;;;;;;5092810;28;20417;-64
2021/12/22 07:22:25;;;;;;;;;;;0.00;58.50;;;;;;5092804;28;19908;-64
2021/12/22 07:24:50;;;;;;;;;;;0.10;58.60;;;;;;5092802;28;19966;-65
2021/12/22 07:27:16;;;;;;;;;;;0.10;58.60;;;;;;5097893;28;19931;-65
2021/12/22 07:29:41;;;;;;;;;;;0.10;59.20;;;;;;5096631;28;19973;-64
2021/12/22 07:32:07;;;;;;;;;;;0.10;58.60;;;;;;5096628;28;19908;-65
2021/12/22 07:34:37;;;;;;;;;;;0.20;58.60;;;;;;5096674;28;19908;-64
2021/12/22 07:37:11;;;;;;;;;;;0.20;58.70;;;;;;5096585;28;19919;-65
2021/12/22 07:39:37;;;;;;;;;;;0.20;58.70;;;;;;5097604;28;19915;-65
2021/12/22 07:42:03;;;;;;;;;;;0.30;58.80;;;;;;5096406;28;19912;-65
2021/12/22 07:44:28;;;;;;;;;;;0.40;58.90;;;;;;5096362;28;19908;-65
2021/12/22 07:46:54;;;;;;;;;;;0.40;59.00;;;;;;5096292;28;20392;-65
2021/12/22 07:49:20;;;;;;;;;;;0.50;59.00;;;;;;5096291;28;19918;-65
2021/12/22 07:51:45;;;;;;;;;;;0.50;59.10;;;;;;5106141;28;20384;-65
2021/12/22 07:54:11;;;;;;;;;;;0.60;59.20;;;;;;5116695;28;20004;-65
2021/12/22 07:56:37;;;;;;;;;;;0.70;59.40;;;;;;5116459;28;19907;-65
2021/12/22 07:59:02;;;;;;;;;;;0.70;59.40;;;;;;5116528;28;19908;-65
2021/12/22 08:01:29;;;;;;;;;;;0.80;59.50;;;;;;5116541;28;19969;-64
2021/12/22 08:03:55;;;;;;;;;;;0.90;59.60;;;;;;5114502;28;20388;-65
2021/12/22 08:06:20;;;;;;;;;;;0.90;59.60;;;;;;5116414;28;19915;-65
2021/12/22 08:08:47;;;;;;;;;;;1.00;59.60;;;;;;5116092;28;19966;-65
2021/12/22 08:11:13;;;;;;;;;;;1.10;59.70;;;;;;5116125;28;19908;-65
2021/12/22 08:13:39;;;;;;;;;;;1.10;59.60;;;;;;5103445;27;19915;-65
2021/12/22 08:16:05;;;;;;;;;;;1.20;59.60;;;;;;5099594;28;19916;-64
2021/12/22 08:18:31;;;;;;;;;;;1.30;59.70;;;;;;5107747;28;19920;-65
2021/12/22 08:20:56;;;;;;;;;;;1.40;59.70;;;;;;5115479;28;20350;-65
2021/12/22 08:23:22;;;;;;;;;;;1.40;59.70;;;;;;5115629;28;19908;-65
2021/12/22 08:25:48;;;;;;;;;;;1.50;59.60;;;;;;5115878;28;19904;-65
2021/12/22 08:28:14;;;;;;;;;;;1.50;59.60;;;;;;5115613;28;20057;-65
2021/12/22 08:30:40;;;;;;;;;;;1.60;59.60;;;;;;5115791;28;19928;-65
2021/12/22 08:33:09;;;;;;;;;;;1.70;59.60;;;;;;5110550;28;19915;-64
2021/12/22 08:38:50;;;;;;;;;;;1.80;59.60;;;;;;5115492;28;19908;-65
2021/12/22 08:41:06;;;;;;;;;;;1.90;59.50;;;;;;5115556;28;20281;-65
2021/12/22 08:43:32;;;;;;;;;;;2.00;59.50;;;;;;5115521;28;19908;-65
2021/12/22 08:45:57;;;;;;;;;;;2.00;59.50;;;;;;5115455;28;19908;-65
2021/12/22 08:48:23;;;;;;;;;;;2.10;59.50;;;;;;5115447;28;19968;-65
2021/12/22 08:50:49;;;;;;;;;;;2.20;59.50;;;;;;5113920;28;19915;-65
2021/12/22 08:53:14;;;;;;;;;;;2.20;59.40;;;;;;5115333;28;19908;-65
2021/12/22 08:55:40;;;;;;;;;;;2.20;59.30;;;;;;5115047;28;19981;-65
2021/12/22 08:58:05;;;;;;;;;;;2.30;59.30;;;;;;5115320;28;19961;-65
2021/12/22 09:00:33;;;;;;;;;;;2.40;59.30;;;;;;5115112;28;19915;-65
2021/12/22 09:02:59;;;;;;;;;;;2.40;59.20;;;;;;5115344;28;20365;-65
2021/12/22 09:05:24;;;;;;;;;;;2.50;59.20;;;;;;5115033;28;19915;-65
2021/12/22 09:07:51;;;;;;;;;;;2.60;59.20;;;;;;5110321;28;19954;-65
2021/12/22 09:10:17;;;;;;;;;;;2.60;59.10;;;;;;5115004;28;19907;-65
2021/12/22 09:12:42;;;;;;;;;;;2.70;59.10;;;;;;5113441;28;20391;-65
2021/12/22 09:15:08;;;;;;;;;;;2.70;59.00;;;;;;5114577;28;19924;-65
2021/12/22 09:17:34;;;;;;;;;;;2.80;58.90;;;;;;5113619;28;19960;-65
2021/12/22 09:20:00;;;;;;;;;;;2.80;58.90;;;;;;5113424;28;19915;-65
2021/12/22 09:22:26;;;;;;;;;;;2.90;58.80;;;;;;5114662;28;19908;-65
2021/12/22 09:24:52;;;;;;;;;;;3.00;58.80;;;;;;5110132;28;19916;-65
2021/12/22 09:27:17;;;;;;;;;;;3.00;58.60;;;;;;5114583;28;19926;-65
2021/12/22 09:29:43;;;;;;;;;;;3.00;58.40;;;;;;5114307;28;19912;-65
2021/12/22 09:32:12;;;;;;;;;;;3.00;58.30;;;;;;5114620;28;20372;-65
2021/12/22 09:34:38;;;;;;;;;;;3.10;58.30;;;;;;5113010;28;19908;-65
2021/12/22 09:37:03;;;;;;;;;;;3.10;58.20;;;;;;5094088;28;20372;-64
2021/12/22 09:39:29;;;;;;;;;;;3.10;58.20;;;;;;5092856;28;19931;-65
2021/12/22 09:41:54;;;;;;;;;;;3.20;58.20;;;;;;5093958;28;19982;-64
2021/12/22 09:44:20;;;;;;;;;;;3.30;58.20;;;;;;5093746;28;19915;-65
2021/12/22 09:46:48;;;;;;;;;;;3.30;58.10;;;;;;5111774;28;19918;-65
2021/12/22 09:49:36;;;;;;;;;;;3.40;58.10;;;;;;5113797;28;19918;-65
2021/12/22 09:52:23;;;;;;;;;;;3.40;58.10;;;;;;5109593;28;19920;-64
2021/12/22 09:54:50;;;;;;;;;;;3.50;58.10;;;;;;5095484;28;20290;-64
2021/12/22 09:57:17;;;;;;;;;;;3.50;58.00;;;;;;5106258;28;20002;-65
2021/12/22 09:59:47;;;;;;;;;;;3.60;58.00;;;;;;5111264;28;20018;-65
2021/12/22 10:02:13;;;;;;;;;;;3.70;58.00;;;;;;5097630;28;19912;-65
2021/12/22 10:04:38;;;;;;;;;;;3.70;57.90;;;;;;5112591;28;19990;-65
2021/12/22 10:07:04;;;;;;;;;;;3.70;57.90;;;;;;5110860;28;19998;-66
2021/12/22 10:09:31;;;;;;;;;;;3.80;57.80;;;;;;5114051;28;20280;-66
2021/12/22 10:11:57;;;;;;;;;;;3.80;57.60;;;;;;5108937;28;20003;-66
2021/12/22 10:14:24;;;;;;;;;;;3.90;57.60;;;;;;5113654;28;19951;-65
2021/12/22 10:16:51;;;;;;;;;;;4.00;57.70;;;;;;5103508;28;20074;-65
2021/12/22 10:19:17;;;;;;;;;;;4.10;58.30;;;;;;5092754;28;19912;-65
2021/12/22 10:21:55;;;;;;;;;;;4.30;58.70;;;;;;5107090;28;19918;-64
2021/12/22 10:24:32;;;;;;;;;;;4.50;58.60;;;;;;5097629;28;20482;-65
2021/12/22 10:27:02;;;;;;;;;;;4.70;58.10;;;;;;5105399;28;19912;-65
2021/12/22 10:29:32;;;;;;;;;;;4.80;57.70;;;;;;5113550;28;20283;-64
2021/12/22 10:32:05;;;;;;;;;;;4.80;57.30;;;;;;5096917;28;19934;-64
2021/12/22 10:34:30;;;;;;;;;;;4.90;57.00;;;;;;5093027;28;19915;-65
2021/12/22 10:36:56;;;;;;;;;;;4.90;56.70;;;;;;5093747;28;19909;-65
2021/12/22 10:39:22;;;;;;;;;;;4.90;56.50;;;;;;5111456;28;20301;-64
2021/12/22 10:41:47;;;;;;;;;;;4.90;56.40;;;;;;5113289;28;19915;-64
2021/12/22 10:44:13;;;;;;;;;;;5.00;56.30;;;;;;5113299;28;19915;-64
2021/12/22 10:46:39;;;;;;;;;;;5.00;56.20;;;;;;5113483;28;19908;-64
2021/12/22 10:49:14;;;;;;;;;;;5.00;56.00;;;;;;5110604;28;19916;-64
2021/12/22 10:51:42;;;;;;;;;;;5.00;56.00;;;;;;5106870;28;19923;-64
2021/12/22 10:54:09;;;;;;;;;;;5.10;56.00;;;;;;5113625;28;19911;-64
2021/12/22 10:56:36;;;;;;;;;;;5.10;55.90;;;;;;5113511;28;19908;-64
2021/12/22 10:59:07;;;;;;;;;;;5.10;55.90;;;;;;5112173;28;19947;-64
2021/12/22 11:01:35;;;;;;;;;;;5.10;55.90;;;;;;5098959;28;19912;-63
2021/12/22 11:04:04;;;;;;;;;;;5.10;55.60;;;;;;5117879;28;20273;-63
2021/12/22 11:06:31;;;;;;;;;;;5.20;55.60;;;;;;5117686;28;19908;-63
2021/12/22 11:09:13;;;;;;;;;;;5.20;55.60;;;;;;5117519;28;19937;-64
2021/12/22 11:11:52;;;;;;;;;;;5.20;55.50;;;;;;5100210;28;19912;-64
2021/12/22 11:14:25;;;;;;;;;;;5.30;55.40;;;;;;5096845;28;19911;-64
2021/12/22 11:16:52;;;;;;;;;;;5.30;55.40;;;;;;5102074;28;19955;-65
2021/12/22 11:19:17;;;;;;;;;;;5.40;55.30;;;;;;5111751;27;19911;-64
2021/12/22 11:22:16;;;;;;;;;;;5.40;55.10;;;;;;5107941;28;20383;-65
2021/12/22 11:24:45;;;;;;;;;;;5.40;55.10;;;;;;5096872;28;19944;-65
2021/12/22 11:27:17;;;;;;;;;;;5.50;54.90;;;;;;5096815;28;19908;-65
2021/12/22 11:29:45;;;;;;;;;;;5.50;54.90;;;;;;5096692;28;19920;-65
2021/12/22 11:32:13;;;;;;;;;;;5.50;54.90;;;;;;5107448;28;19972;-65
2021/12/22 11:34:39;;;;;;;;;;;5.50;55.50;;;;;;5115870;28;19947;-66
2021/12/22 11:37:07;;;;;;;;;;;5.60;54.90;;;;;;5116926;28;19914;-66
2021/12/22 11:39:33;;;;;;;;;;;5.60;54.80;;;;;;5113853;28;20816;-65
2021/12/22 11:42:02;;;;;;;;;;;5.70;54.50;;;;;;5113770;28;19912;-65
2021/12/22 11:44:29;;;;;;;;;;;5.70;54.20;;;;;;5116328;28;19908;-65
2021/12/22 11:46:56;;;;;;;;;;;5.70;54.10;;;;;;5115096;28;20002;-66
2021/12/22 11:49:22;;;;;;;;;;;5.70;53.90;;;;;;5108458;28;19985;-64
2021/12/22 11:51:48;;;;;;;;;;;5.80;53.80;;;;;;5097942;28;20293;-65
2021/12/22 11:54:14;;;;;;;;;;;5.80;53.70;;;;;;5102393;28;19966;-65
2021/12/22 11:56:45;;;;;;;;;;;5.80;53.70;;;;;;5113536;28;20369;-64
2021/12/22 11:59:30;;;;;;;;;;;5.90;53.60;;;;;;5116473;28;19968;-64
2021/12/22 12:02:15;;;;;;;;;;;5.90;53.40;;;;;;5116575;28;20435;-64
2021/12/22 12:04:40;;;;;;;;;;;5.90;53.20;;;;;;5108347;28;19957;-65
2021/12/22 12:07:06;;;;;;;;;;;5.90;53.10;;;;;;5130045;27;19948;-65
2021/12/22 12:09:32;;;;;;;;;;;5.90;53.10;;;;;;5100269;27;20395;-64
2021/12/22 12:11:58;;;;;;;;;;;5.90;53.10;;;;;;5107655;27;19912;-64
2021/12/22 12:14:35;;;;;;;;;;;5.90;52.90;;;;;;5115919;28;20361;-64
2021/12/22 12:23:24;;;;;;;;;;;6.00;52.70;;;;;;5116016;28;19960;-64
2021/12/22 12:25:51;;;;;;;;;;;6.00;52.50;;;;;;5094969;28;20206;-64
2021/12/22 12:28:18;;;;;;;;;;;6.00;52.30;;;;;;5098531;28;20279;-64
2021/12/22 12:30:51;;;;;;;;;;;6.00;52.30;;;;;;5115710;28;19915;-64
2021/12/22 12:33:22;;;;;;;;;;;6.00;51.90;;;;;;5115492;28;19957;-64
2021/12/22 12:35:52;;;;;;;;;;;6.00;51.90;;;;;;5115691;28;19935;-64
2021/12/22 12:38:24;;;;;;;;;;;6.00;51.90;;;;;;5115470;28;19911;-64
2021/12/22 12:41:11;;;;;;;;;;;6.00;51.80;;;;;;5115518;28;19908;-64
2021/12/22 12:43:40;;;;;;;;;;;6.00;51.80;;;;;;5115389;28;19937;-63
2021/12/22 12:46:21;;;;;;;;;;;6.00;51.40;;;;;;5115260;28;19915;-63
2021/12/22 12:48:46;;;;;;;;;;;5.90;51.30;;;;;;5115293;28;19911;-64
2021/12/22 12:51:15;;;;;;;;;;;6.00;51.30;;;;;;5114066;28;19907;-64
2021/12/22 12:53:42;;;;;;;;;;;5.90;51.10;;;;;;5115329;28;19904;-64
2021/12/22 12:56:08;;;;;;;;;;;6.00;51.10;;;;;;5115303;27;20003;-64
2021/12/22 12:58:34;;;;;;;;;;;6.00;51.20;;;;;;5115386;28;19911;-64
2021/12/22 13:01:01;;;;;;;;;;;6.00;51.20;;;;;;5115163;28;19915;-64
2021/12/22 13:03:27;;;;;;;;;;;6.00;51.20;;;;;;5115179;28;19904;-65
2021/12/22 13:05:52;;;;;;;;;;;6.00;51.20;;;;;;5115159;28;19931;-64
2021/12/22 13:08:18;;;;;;;;;;;6.00;51.20;;;;;;5115103;28;19911;-64
2021/12/22 13:10:50;;;;;;;;;;;6.00;51.20;;;;;;5115077;28;20262;-64
2021/12/22 13:13:18;;;;;;;;;;;6.00;51.10;;;;;;5115166;28;19912;-64
2021/12/22 13:15:49;;;;;;;;;;;6.00;51.20;;;;;;5114730;28;20408;-64
2021/12/22 13:18:15;;;;;;;;;;;6.00;51.20;;;;;;5113703;28;19916;-64
2021/12/22 13:20:41;;;;;;;;;;;6.00;51.20;;;;;;5114923;28;20375;-64
2021/12/22 13:23:11;;;;;;;;;;;6.00;51.10;;;;;;5114407;28;19952;-64
2021/12/22 13:25:38;;;;;;;;;;;6.10;51.10;;;;;;5114764;28;19904;-63
2021/12/22 13:28:03;;;;;;;;;;;6.00;51.10;;;;;;5114727;28;19908;-64
2021/12/22 13:30:34;;;;;;;;;;;6.10;51.10;;;;;;5114745;28;19938;-64
2021/12/22 13:33:02;;;;;;;;;;;6.00;51.10;;;;;;5114766;28;19907;-64
2021/12/22 13:35:28;;;;;;;;;;;6.00;51.00;;;;;;5114620;28;19908;-64
2021/12/22 13:37:57;;;;;;;;;;;6.00;50.90;;;;;;5114560;28;19915;-64
2021/12/22 13:40:54;;;;;;;;;;;6.00;51.00;;;;;;5114601;28;19908;-64
2021/12/22 13:43:20;;;;;;;;;;;6.00;51.10;;;;;;5080124;28;20371;-64
2021/12/22 13:45:46;;;;;;;;;;;6.00;51.10;;;;;;5114593;28;19907;-64
2021/12/22 13:48:23;;;;;;;;;;;6.00;51.10;;;;;;5114316;28;20373;-64
2021/12/22 13:50:49;;;;;;;;;;;6.00;51.10;;;;;;5114326;28;19908;-64
2021/12/22 13:53:15;;;;;;;;;;;6.00;51.10;;;;;;5114251;28;19931;-65
2021/12/22 13:55:41;;;;;;;;;;;5.90;51.00;;;;;;5114122;28;19990;-64
2021/12/22 13:58:25;;;;;;;;;;;5.90;51.10;;;;;;5114281;28;20388;-64
2021/12/22 14:01:08;;;;;;;;;;;5.90;51.20;;;;;;5114225;28;19908;-65
2021/12/22 14:03:34;;;;;;;;;;;5.80;51.10;;;;;;5113895;28;20050;-64
2021/12/22 14:06:06;;;;;;;;;;;5.80;51.10;;;;;;5113996;28;19965;-65
2021/12/22 14:08:33;;;;;;;;;;;5.70;51.00;;;;;;5114003;28;19912;-64
2021/12/22 14:10:59;;;;;;;;;;;5.70;51.10;;;;;;5114085;28;19908;-64
2021/12/22 14:13:28;;;;;;;;;;;5.70;51.20;;;;;;5113980;28;20261;-64
2021/12/22 14:15:53;;;;;;;;;;;5.70;51.10;;;;;;5113572;28;19919;-64
2021/12/22 14:18:20;;;;;;;;;;;5.60;51.10;;;;;;5113841;28;19938;-64
2021/12/22 14:20:45;;;;;;;;;;;5.60;51.20;;;;;;5113873;28;20524;-64
2021/12/22 14:23:11;;;;;;;;;;;5.60;51.30;;;;;;5113722;28;20327;-64
2021/12/22 14:25:39;;;;;;;;;;;5.50;51.30;;;;;;5113930;28;19910;-63
2021/12/22 14:28:15;;;;;;;;;;;5.50;51.30;;;;;;5113658;28;20341;-65
2021/12/22 14:30:41;;;;;;;;;;;5.40;51.30;;;;;;5112425;28;19911;-65
2021/12/22 14:33:12;;;;;;;;;;;5.40;51.30;;;;;;5113486;28;19908;-65
2021/12/22 14:35:41;;;;;;;;;;;5.40;51.40;;;;;;5112705;28;19908;-65
2021/12/22 14:38:08;;;;;;;;;;;5.30;51.40;;;;;;5113542;28;19908;-65
2021/12/22 14:40:35;;;;;;;;;;;5.30;51.50;;;;;;5113633;28;20009;-65
2021/12/22 14:43:01;;;;;;;;;;;5.30;51.50;;;;;;5113514;28;19914;-64
2021/12/22 14:45:32;;;;;;;;;;;5.20;51.50;;;;;;5113522;28;20279;-65
2021/12/22 14:48:06;;;;;;;;;;;5.20;51.60;;;;;;5113524;28;20037;-65
2021/12/22 14:50:32;;;;;;;;;;;5.10;51.50;;;;;;5113417;28;20298;-65